createdAt,value
2022-08-08T00:03:31.698Z,64.60
2022-08-08T00:07:37.927Z,66.00
2022-08-08T00:11:23.551Z,65.80
2022-08-08T00:15:24.350Z,63.20
2022-08-08T00:19:27.181Z,66.00
2022-08-08T00:23:28.550Z,63.20
2022-08-08T00:27:32.948Z,67.30
2022-08-08T00:32:19.884Z,63.50
2022-08-08T00:35:34.314Z,65.10
2022-08-08T00:41:06.863Z,67.10
2022-08-08T00:44:06.252Z,64.50
2022-08-08T00:48:01.524Z,68.50
2022-08-08T00:52:02.204Z,67.00
2022-08-08T00:56:19.073Z,67.20
2022-08-08T01:00:06.736Z,66.40
2022-08-08T01:04:13.953Z,64.90
2022-08-08T01:08:30.203Z,65.10
2022-08-08T01:12:44.454Z,64.30
2022-08-08T01:16:38.829Z,63.40
2022-08-08T01:20:22.172Z,62.20
2022-08-08T01:24:26.054Z,61.30
2022-08-08T01:28:27.792Z,61.90
2022-08-08T01:32:17.343Z,63.90
2022-08-08T01:36:11.256Z,62.10
2022-08-08T01:40:00.319Z,64.90
2022-08-08T01:44:09.582Z,64.70
2022-08-08T01:48:27.633Z,63.80
2022-08-08T01:54:01.379Z,62.80
2022-08-08T01:56:42.442Z,62.10
2022-08-08T02:00:36.454Z,62.20
2022-08-08T02:04:20.826Z,61.70
2022-08-08T02:08:08.763Z,61.30
2022-08-08T02:11:52.672Z,60.60
2022-08-08T02:16:00.687Z,60.60
2022-08-08T02:20:09.227Z,62.00
2022-08-08T02:24:14.778Z,62.00
2022-08-08T02:27:58.638Z,62.30
2022-08-08T02:32:00.887Z,61.20
2022-08-08T02:36:05.183Z,62.10
2022-08-08T02:40:13.762Z,62.40
2022-08-08T02:44:38.106Z,62.40
2022-08-08T02:48:26.213Z,61.20
2022-08-08T02:52:34.888Z,62.60
2022-08-08T02:56:39.334Z,63.20
2022-08-08T03:00:47.056Z,61.50
2022-08-08T03:05:04.993Z,62.50
2022-08-08T03:09:24.657Z,63.40
2022-08-08T03:13:34.104Z,63.80
2022-08-08T03:18:04.810Z,64.10
2022-08-08T03:21:58.355Z,64.20
2022-08-08T03:25:40.972Z,62.10
2022-08-08T03:29:54.821Z,62.50
2022-08-08T03:33:56.711Z,63.50
2022-08-08T03:38:52.640Z,62.80
2022-08-08T03:42:28.407Z,62.90
2022-08-08T03:46:05.064Z,63.40
2022-08-08T03:50:00.612Z,63.30
2022-08-08T03:53:47.237Z,63.60
2022-08-08T03:58:32.222Z,63.50
2022-08-08T04:02:12.448Z,63.70
2022-08-08T04:05:37.894Z,65.10
2022-08-08T04:09:59.068Z,64.00
2022-08-08T04:13:30.836Z,63.90
2022-08-08T04:17:58.133Z,64.10
2022-08-08T04:21:38.006Z,64.00
2022-08-08T04:25:23.346Z,64.20
2022-08-08T04:29:15.082Z,64.30
2022-08-08T04:32:58.169Z,64.90
2022-08-08T04:36:39.919Z,64.50
2022-08-08T04:40:23.869Z,64.50
2022-08-08T04:44:06.325Z,64.60
2022-08-08T04:47:48.052Z,64.70
2022-08-08T04:51:54.927Z,64.80
2022-08-08T04:55:47.613Z,64.90
2022-08-08T04:59:41.867Z,65.00
2022-08-08T05:04:11.241Z,65.00
2022-08-08T05:07:26.921Z,65.20
2022-08-08T05:11:24.635Z,65.20
2022-08-08T05:15:08.622Z,65.00
2022-08-08T05:18:56.595Z,64.70
2022-08-08T05:22:39.206Z,65.00
2022-08-08T05:26:22.344Z,65.00
2022-08-08T05:30:12.454Z,65.60
2022-08-08T05:33:54.197Z,65.50
2022-08-08T05:37:52.676Z,65.50
2022-08-08T05:41:36.004Z,65.70
2022-08-08T05:45:41.428Z,65.90
2022-08-08T05:49:25.303Z,65.80
2022-08-08T05:53:53.918Z,65.90
2022-08-08T05:57:15.639Z,66.00
2022-08-08T06:00:58.733Z,67.40
2022-08-08T06:04:41.033Z,66.20
2022-08-08T06:08:34.545Z,66.10
2022-08-08T06:12:18.580Z,66.00
2022-08-08T06:16:12.150Z,65.80
2022-08-08T06:19:53.904Z,66.10
2022-08-08T06:24:01.987Z,65.90
2022-08-08T06:27:51.244Z,65.90
2022-08-08T06:32:09.041Z,66.50
2022-08-08T06:36:07.350Z,66.90
2022-08-08T06:39:56.022Z,66.30
2022-08-08T06:43:39.546Z,66.10
2022-08-08T06:47:22.119Z,65.90
2022-08-08T06:51:08.382Z,66.10
2022-08-08T06:54:50.466Z,66.10
2022-08-08T06:58:33.410Z,66.10
2022-08-08T07:02:29.158Z,66.10
2022-08-08T07:06:11.559Z,67.60
2022-08-08T07:10:00.220Z,66.80
2022-08-08T07:14:00.853Z,66.50
2022-08-08T07:18:01.690Z,66.70
2022-08-08T07:22:11.863Z,67.30
2022-08-08T07:26:01.517Z,67.80
2022-08-08T07:30:00.975Z,66.20
2022-08-08T07:33:53.429Z,66.30
2022-08-08T07:37:56.270Z,66.40
2022-08-08T07:42:04.604Z,66.20
2022-08-08T07:46:05.631Z,66.10
2022-08-08T07:49:49.388Z,66.00
2022-08-08T07:54:24.157Z,65.80
2022-08-08T07:58:31.682Z,67.00
2022-08-08T08:02:35.104Z,66.00
2022-08-08T08:06:16.345Z,65.50
2022-08-08T08:09:58.573Z,65.30
2022-08-08T08:14:07.773Z,65.30
2022-08-08T08:17:55.818Z,65.20
2022-08-08T08:21:52.358Z,65.10
2022-08-08T08:25:43.787Z,65.70
2022-08-08T08:29:28.728Z,64.80
2022-08-08T08:33:11.001Z,64.90
2022-08-08T08:36:54.741Z,65.20
2022-08-08T08:40:36.960Z,64.60
2022-08-08T08:44:21.004Z,64.50
2022-08-08T08:48:06.410Z,64.40
2022-08-08T08:51:51.767Z,64.50
2022-08-08T08:55:39.443Z,64.40
2022-08-08T08:59:58.927Z,64.50
2022-08-08T09:03:24.226Z,63.70
2022-08-08T09:07:39.438Z,63.60
2022-08-08T09:11:33.255Z,63.50
2022-08-08T09:15:15.285Z,63.50
2022-08-08T09:19:29.125Z,63.20
2022-08-08T09:23:25.647Z,63.10
2022-08-08T09:27:20.071Z,62.70
2022-08-08T09:31:12.896Z,62.60
2022-08-08T09:34:54.862Z,62.60
2022-08-08T09:39:10.036Z,62.30
2022-08-08T09:43:41.164Z,61.90
2022-08-08T09:48:04.582Z,61.40
2022-08-08T09:51:29.820Z,61.00
2022-08-08T09:55:31.137Z,61.30
2022-08-08T10:00:02.027Z,60.60
2022-08-08T10:03:31.496Z,60.00
2022-08-08T10:07:15.807Z,59.90
2022-08-08T10:11:01.310Z,59.60
2022-08-08T10:15:00.094Z,59.30
2022-08-08T10:18:42.954Z,58.20
2022-08-08T10:22:25.605Z,58.50
2022-08-08T10:26:12.298Z,58.10
2022-08-08T10:30:16.666Z,57.40
2022-08-08T10:34:19.464Z,56.30
2022-08-08T10:38:05.306Z,55.20
2022-08-08T10:42:14.913Z,55.10
2022-08-08T10:45:58.904Z,54.10
2022-08-08T10:50:01.284Z,54.70
2022-08-08T10:53:58.019Z,51.70
2022-08-08T10:57:50.454Z,52.20
2022-08-08T11:01:36.481Z,52.90
2022-08-08T11:05:18.452Z,52.20
2022-08-08T11:09:19.436Z,51.70
2022-08-08T11:13:28.605Z,51.20
2022-08-08T11:17:04.168Z,51.90
2022-08-08T11:20:52.384Z,51.50
2022-08-08T11:24:35.631Z,51.50
2022-08-08T11:28:20.298Z,51.30
2022-08-08T11:32:03.680Z,51.10
2022-08-08T11:35:45.460Z,50.70
2022-08-08T11:39:29.357Z,50.60
2022-08-08T11:43:19.231Z,51.50
2022-08-08T11:47:03.573Z,50.50
2022-08-08T11:50:54.839Z,49.90
2022-08-08T11:54:45.030Z,49.50
2022-08-08T11:58:34.751Z,49.00
2022-08-08T12:02:35.893Z,47.00
2022-08-08T12:06:18.546Z,48.40
2022-08-08T12:10:11.092Z,48.20
2022-08-08T12:14:03.590Z,46.50
2022-08-08T12:17:51.066Z,48.00
2022-08-08T12:21:59.174Z,47.80
2022-08-08T12:25:44.744Z,47.40
2022-08-08T12:29:42.421Z,47.30
2022-08-08T12:33:37.486Z,47.50
2022-08-08T12:37:25.866Z,47.10
2022-08-08T12:41:35.363Z,46.90
2022-08-08T12:45:59.128Z,46.80
2022-08-08T12:49:43.764Z,45.40
2022-08-08T12:53:37.982Z,46.40
2022-08-08T12:57:26.103Z,46.30
2022-08-08T13:01:11.919Z,45.80
2022-08-08T13:04:54.801Z,45.90
2022-08-08T13:08:53.670Z,45.50
2022-08-08T13:12:47.008Z,43.90
2022-08-08T13:16:32.955Z,44.70
2022-08-08T13:20:17.416Z,44.50
2022-08-08T13:24:00.222Z,44.40
2022-08-08T13:27:42.906Z,44.30
2022-08-08T13:31:25.687Z,43.80
2022-08-08T13:35:24.184Z,43.10
2022-08-08T13:39:06.970Z,43.10
2022-08-08T13:42:50.694Z,42.90
2022-08-08T13:46:32.581Z,42.70
2022-08-08T13:50:39.780Z,42.50
2022-08-08T13:54:21.265Z,42.60
2022-08-08T13:58:07.847Z,40.80
2022-08-08T14:01:57.995Z,42.10
2022-08-08T14:06:00.429Z,41.30
2022-08-08T14:10:04.427Z,41.40
2022-08-08T14:13:59.901Z,41.30
2022-08-08T14:17:57.695Z,41.20
2022-08-08T14:21:49.016Z,40.80
2022-08-08T14:25:47.050Z,40.20
2022-08-08T14:29:39.458Z,38.70
2022-08-08T14:33:36.410Z,40.20
2022-08-08T14:37:18.806Z,38.50
2022-08-08T14:41:17.666Z,39.00
2022-08-08T14:45:18.287Z,36.60
2022-08-08T14:49:20.429Z,37.90
2022-08-08T14:53:15.163Z,36.40
2022-08-08T14:56:58.117Z,36.20
2022-08-08T15:00:40.097Z,35.20
2022-08-08T15:04:24.147Z,34.50
2022-08-08T15:08:12.579Z,33.90
2022-08-08T15:12:04.671Z,33.30
2022-08-08T15:16:02.837Z,32.60
2022-08-08T15:19:45.583Z,32.10
2022-08-08T15:23:33.334Z,31.40
2022-08-08T15:27:57.681Z,30.60
2022-08-08T15:31:55.983Z,30.00
2022-08-08T15:35:22.200Z,29.80
2022-08-08T15:39:04.427Z,29.50
2022-08-08T15:42:47.627Z,29.00
2022-08-08T15:46:34.750Z,28.70
2022-08-08T15:50:20.869Z,28.30
2022-08-08T15:54:04.221Z,27.90
2022-08-08T15:57:46.070Z,27.60
2022-08-08T16:01:41.030Z,27.30
2022-08-08T16:05:35.884Z,27.20
2022-08-08T16:13:14.926Z,27.10
2022-08-08T16:13:43.596Z,26.60
2022-08-08T16:17:58.012Z,26.50
2022-08-08T16:21:30.846Z,26.30
2022-08-08T16:25:13.647Z,26.10
2022-08-08T16:28:57.088Z,26.00
2022-08-08T16:32:38.874Z,25.90
2022-08-08T16:36:33.601Z,25.60
2022-08-08T16:40:19.577Z,25.50
2022-08-08T16:44:01.822Z,25.10
2022-08-08T16:47:46.525Z,25.00
2022-08-08T16:55:04.274Z,24.90
2022-08-08T16:55:53.803Z,24.80
2022-08-08T16:59:50.830Z,24.60
2022-08-08T17:03:59.078Z,24.60
2022-08-08T17:07:37.523Z,24.20
2022-08-08T17:11:19.887Z,24.10
2022-08-08T17:15:01.745Z,23.80
2022-08-08T17:19:00.651Z,23.70
2022-08-08T17:22:42.802Z,23.70
2022-08-08T17:26:26.689Z,23.70
2022-08-08T17:30:16.307Z,23.50
2022-08-08T17:34:53.906Z,23.40
2022-08-08T17:38:07.174Z,23.50
2022-08-08T17:41:49.625Z,23.50
2022-08-08T17:45:40.430Z,23.40
2022-08-08T17:49:24.901Z,23.40
2022-08-08T17:53:10.418Z,23.50
2022-08-08T17:56:52.562Z,23.80
2022-08-08T18:00:41.127Z,24.10
2022-08-08T18:04:28.751Z,24.40
2022-08-08T18:08:24.641Z,24.80
2022-08-08T18:12:14.694Z,25.20
2022-08-08T18:16:04.313Z,25.50
2022-08-08T18:19:46.493Z,25.90
2022-08-08T18:23:55.840Z,26.30
2022-08-08T18:27:38.335Z,26.60
2022-08-08T18:31:27.746Z,26.90
2022-08-08T18:35:15.521Z,27.30
2022-08-08T18:38:58.684Z,27.60
2022-08-08T18:42:50.016Z,27.80
2022-08-08T18:46:55.237Z,28.10
2022-08-08T18:50:33.822Z,28.50
2022-08-08T18:54:22.452Z,28.80
2022-08-08T18:58:06.445Z,29.10
2022-08-08T19:02:14.239Z,29.50
2022-08-08T19:05:51.750Z,30.10
2022-08-08T19:09:49.377Z,29.90
2022-08-08T19:13:53.338Z,30.40
2022-08-08T19:17:48.173Z,30.70
2022-08-08T19:21:48.950Z,31.10
2022-08-08T19:26:25.043Z,31.40
2022-08-08T19:29:35.699Z,31.80
2022-08-08T19:33:24.540Z,32.10
2022-08-08T19:37:06.443Z,32.50
2022-08-08T19:40:54.550Z,32.90
2022-08-08T19:44:45.784Z,33.40
2022-08-08T19:48:31.247Z,33.60
2022-08-08T19:52:13.642Z,34.10
2022-08-08T19:55:55.450Z,34.40
2022-08-08T19:59:41.992Z,34.70
2022-08-08T20:04:00.987Z,35.10
2022-08-08T20:08:29.032Z,35.30
2022-08-08T20:11:27.418Z,35.60
2022-08-08T20:15:16.824Z,35.80
2022-08-08T20:18:59.222Z,36.10
2022-08-08T20:22:43.316Z,36.20
2022-08-08T20:26:30.233Z,36.40
2022-08-08T20:30:53.931Z,36.80
2022-08-08T20:34:29.166Z,37.00
2022-08-08T20:38:12.736Z,37.10
2022-08-08T20:41:54.563Z,37.30
2022-08-08T20:45:58.101Z,37.50
2022-08-08T20:49:46.625Z,37.60
2022-08-08T20:53:58.990Z,37.60
2022-08-08T20:57:30.888Z,37.90
2022-08-08T21:01:20.186Z,38.20
2022-08-08T21:05:02.202Z,39.00
2022-08-08T21:08:49.254Z,38.20
2022-08-08T21:12:36.561Z,38.50
2022-08-08T21:16:28.685Z,39.30
2022-08-08T21:20:11.604Z,38.80
2022-08-08T21:24:03.125Z,38.90
2022-08-08T21:28:09.681Z,39.30
2022-08-08T21:31:57.784Z,39.50
2022-08-08T21:36:16.873Z,39.80
2022-08-08T21:39:57.070Z,40.00
2022-08-08T21:43:39.050Z,40.50
2022-08-08T21:48:12.845Z,40.60
2022-08-08T21:54:16.841Z,40.90
2022-08-08T21:56:25.974Z,41.10
2022-08-08T21:59:44.097Z,41.40
2022-08-08T22:03:30.630Z,41.90
2022-08-08T22:07:12.378Z,41.90
2022-08-08T22:10:55.137Z,42.20
2022-08-08T22:14:37.241Z,42.40
2022-08-08T22:18:19.247Z,42.60
2022-08-08T22:22:00.986Z,42.90
2022-08-08T22:26:28.212Z,43.00
2022-08-08T22:29:59.761Z,43.40
2022-08-08T22:34:13.391Z,43.80
2022-08-08T22:37:54.498Z,44.00
2022-08-08T22:41:36.961Z,44.30
2022-08-08T22:45:21.072Z,44.70
2022-08-08T22:49:03.634Z,44.90
2022-08-08T22:54:19.658Z,45.40
2022-08-08T22:56:50.169Z,45.80
2022-08-08T23:00:32.464Z,45.90
2022-08-08T23:04:14.517Z,46.20
2022-08-08T23:08:19.880Z,46.30
2022-08-08T23:12:28.968Z,46.50
2022-08-08T23:16:37.758Z,46.90
2022-08-08T23:20:05.998Z,47.20
2022-08-08T23:23:48.440Z,47.50
2022-08-08T23:27:46.122Z,47.60
2022-08-08T23:31:28.306Z,47.60
2022-08-08T23:35:12.712Z,47.50
2022-08-08T23:38:59.502Z,47.70
2022-08-08T23:42:45.202Z,48.10
2022-08-08T23:49:08.548Z,48.30
2022-08-08T23:50:31.221Z,48.20
2022-08-08T23:54:42.664Z,48.30
2022-08-08T23:58:31.966Z,48.40
